createdAt,value
2022-08-02T00:01:04.442Z,100354.28
2022-08-02T00:03:33.109Z,100369.09
2022-08-02T00:06:01.597Z,100364.44
2022-08-02T00:08:31.511Z,100365.50
2022-08-02T00:10:59.987Z,100361.41
2022-08-02T00:13:28.684Z,100357.13
2022-08-02T00:15:57.175Z,100352.31
2022-08-02T00:18:25.677Z,100351.56
2022-08-02T00:20:54.220Z,100347.31
2022-08-02T00:23:22.899Z,100344.19
2022-08-02T00:25:54.750Z,100342.56
2022-08-02T00:28:27.467Z,100342.81
2022-08-02T00:30:58.277Z,100355.16
2022-08-02T00:34:26.538Z,100353.69
2022-08-02T00:36:16.059Z,100354.47
2022-08-02T00:38:46.392Z,100357.09
2022-08-02T00:41:19.326Z,100359.81
2022-08-02T00:43:49.725Z,100361.38
2022-08-02T00:46:20.606Z,100358.97
2022-08-02T00:48:49.843Z,100364.22
2022-08-02T00:51:18.843Z,100368.66
2022-08-02T00:53:47.326Z,100365.50
2022-08-02T00:56:17.079Z,100368.88
2022-08-02T00:58:45.628Z,100365.75
2022-08-02T01:01:14.207Z,100363.91
2022-08-02T01:03:43.014Z,100363.44
2022-08-02T01:06:11.964Z,100368.88
2022-08-02T01:08:40.667Z,100369.97
2022-08-02T01:11:09.507Z,100376.09
2022-08-02T01:13:39.459Z,100370.88
2022-08-02T01:16:17.516Z,100363.84
2022-08-02T01:18:52.665Z,100374.31
2022-08-02T01:21:47.646Z,100363.28
2022-08-02T01:24:35.188Z,100376.16
2022-08-02T01:27:22.156Z,100370.13
2022-08-02T01:29:58.503Z,100358.81
2022-08-02T01:32:32.037Z,100356.00
2022-08-02T01:35:05.021Z,100349.41
2022-08-02T01:37:53.130Z,100340.81
2022-08-02T01:40:29.137Z,100343.03
2022-08-02T01:42:58.930Z,100348.09
2022-08-02T01:45:34.604Z,100349.94
2022-08-02T01:48:04.989Z,100336.91
2022-08-02T01:50:36.429Z,100349.94
2022-08-02T01:53:11.403Z,100348.25
2022-08-02T01:55:58.358Z,100350.03
2022-08-02T01:58:32.752Z,100348.78
2022-08-02T02:01:03.494Z,100348.78
2022-08-02T02:03:33.974Z,100354.75
2022-08-02T02:06:05.202Z,100350.56
2022-08-02T02:08:40.198Z,100352.56
2022-08-02T02:12:14.111Z,100352.34
2022-08-02T02:14:00.405Z,100354.13
2022-08-02T02:16:32.114Z,100354.28
2022-08-02T02:19:03.247Z,100355.91
2022-08-02T02:21:31.937Z,100351.63
2022-08-02T02:24:04.185Z,100351.84
2022-08-02T02:26:37.630Z,100339.50
2022-08-02T02:29:12.559Z,100348.84
2022-08-02T02:31:46.238Z,100354.91
2022-08-02T02:34:18.845Z,100357.03
2022-08-02T02:36:52.082Z,100358.91
2022-08-02T02:39:24.133Z,100363.06
2022-08-02T02:41:54.590Z,100365.75
2022-08-02T02:44:24.360Z,100364.06
2022-08-02T02:46:56.090Z,100364.31
2022-08-02T02:49:26.239Z,100362.75
2022-08-02T02:51:55.798Z,100365.91
2022-08-02T02:54:31.070Z,100369.31
2022-08-02T02:57:06.364Z,100360.47
2022-08-02T02:59:36.342Z,100356.09
2022-08-02T03:02:13.859Z,100360.09
2022-08-02T03:04:57.113Z,100360.69
2022-08-02T03:07:27.423Z,100365.66
2022-08-02T03:09:56.119Z,100362.91
2022-08-02T03:12:30.944Z,100357.34
2022-08-02T03:15:02.152Z,100359.53
2022-08-02T03:17:45.165Z,100351.97
2022-08-02T03:20:16.702Z,100350.56
2022-08-02T03:22:46.616Z,100348.44
2022-08-02T03:25:16.834Z,100352.97
2022-08-02T03:27:45.377Z,100342.19
2022-08-02T03:30:15.758Z,100351.44
2022-08-02T03:32:48.644Z,100348.44
2022-08-02T03:35:23.746Z,100352.47
2022-08-02T03:37:55.686Z,100352.84
2022-08-02T03:40:25.039Z,100349.56
2022-08-02T03:42:53.942Z,100357.53
2022-08-02T03:45:23.070Z,100355.66
2022-08-02T03:47:53.679Z,100343.59
2022-08-02T03:50:29.063Z,100341.66
2022-08-02T03:52:58.132Z,100343.59
2022-08-02T03:55:26.940Z,100345.53
2022-08-02T03:57:55.485Z,100345.72
2022-08-02T04:00:24.599Z,100338.91
2022-08-02T04:02:54.682Z,100338.63
2022-08-02T04:05:23.515Z,100341.75
2022-08-02T04:08:33.850Z,100345.88
2022-08-02T04:10:58.521Z,100340.16
2022-08-02T04:13:35.688Z,100340.31
2022-08-02T04:16:12.456Z,100345.16
2022-08-02T04:18:48.924Z,100344.56
2022-08-02T04:21:19.320Z,100347.28
2022-08-02T04:23:50.041Z,100348.72
2022-08-02T04:26:19.636Z,100344.47
2022-08-02T04:28:56.421Z,100352.66
2022-08-02T04:31:25.659Z,100349.31
2022-08-02T04:33:56.154Z,100348.78
2022-08-02T04:36:30.819Z,100352.34
2022-08-02T04:39:00.612Z,100358.47
2022-08-02T04:41:43.991Z,100369.28
2022-08-02T04:44:13.056Z,100368.34
2022-08-02T04:46:43.262Z,100372.41
2022-08-02T04:49:14.090Z,100369.84
2022-08-02T04:51:44.920Z,100383.47
2022-08-02T04:54:14.016Z,100388.19
2022-08-02T04:56:42.586Z,100394.13
2022-08-02T04:59:12.398Z,100394.38
2022-08-02T05:01:42.486Z,100403.25
2022-08-02T05:04:12.340Z,100406.56
2022-08-02T05:06:40.883Z,100413.06
2022-08-02T05:09:09.375Z,100408.41
2022-08-02T05:11:37.797Z,100409.38
2022-08-02T05:14:06.945Z,100406.19
2022-08-02T05:16:35.461Z,100390.84
2022-08-02T05:19:04.050Z,100390.28
2022-08-02T05:21:33.866Z,100394.81
2022-08-02T05:24:02.243Z,100394.22
2022-08-02T05:26:30.693Z,100401.16
2022-08-02T05:28:59.320Z,100406.75
2022-08-02T05:31:27.766Z,100396.25
2022-08-02T05:33:56.322Z,100397.44
2022-08-02T05:36:24.710Z,100399.66
2022-08-02T05:38:59.694Z,100399.28
2022-08-02T05:41:33.842Z,100401.88
2022-08-02T05:44:02.343Z,100404.97
2022-08-02T05:46:30.923Z,100406.13
2022-08-02T05:49:00.145Z,100406.53
2022-08-02T05:51:37.964Z,100406.03
2022-08-02T05:54:19.400Z,100406.00
2022-08-02T05:56:53.058Z,100401.53
2022-08-02T05:59:31.135Z,100403.47
2022-08-02T06:02:05.219Z,100407.03
2022-08-02T06:04:49.611Z,100419.34
2022-08-02T06:07:20.836Z,100417.31
2022-08-02T06:09:52.269Z,100423.38
2022-08-02T06:12:22.051Z,100417.72
2022-08-02T06:14:54.376Z,100415.38
2022-08-02T06:17:24.190Z,100421.13
2022-08-02T06:19:55.070Z,100416.09
2022-08-02T06:22:37.213Z,100419.13
2022-08-02T06:25:48.017Z,100421.72
2022-08-02T06:27:58.455Z,100420.84
2022-08-02T06:30:27.821Z,100419.06
2022-08-02T06:32:56.667Z,100418.03
2022-08-02T06:35:43.774Z,100416.91
2022-08-02T06:38:18.473Z,100415.88
2022-08-02T06:40:57.306Z,100420.53
2022-08-02T06:43:36.212Z,100417.16
2022-08-02T06:46:38.093Z,100419.72
2022-08-02T06:48:57.751Z,100422.97
2022-08-02T06:51:26.287Z,100417.84
2022-08-02T06:53:55.201Z,100416.13
2022-08-02T06:56:25.071Z,100409.97
2022-08-02T06:58:53.586Z,100418.72
2022-08-02T07:01:22.348Z,100426.81
2022-08-02T07:03:51.047Z,100427.75
2022-08-02T07:06:19.608Z,100426.50
2022-08-02T07:09:11.297Z,100413.47
2022-08-02T07:11:39.289Z,100409.84
2022-08-02T07:14:07.660Z,100420.38
2022-08-02T07:16:36.148Z,100411.97
2022-08-02T07:19:04.711Z,100407.94
2022-08-02T07:21:56.466Z,100406.97
2022-08-02T07:24:21.600Z,100417.84
2022-08-02T07:27:10.746Z,100416.28
2022-08-02T07:29:46.328Z,100405.88
2022-08-02T07:32:16.385Z,100402.53
2022-08-02T07:34:50.482Z,100393.53
2022-08-02T07:37:53.286Z,100401.84
2022-08-02T07:40:14.524Z,100399.19
2022-08-02T07:42:45.689Z,100408.00
2022-08-02T07:45:15.706Z,100405.97
2022-08-02T07:47:45.874Z,100401.22
2022-08-02T07:50:16.761Z,100396.53
2022-08-02T07:52:46.389Z,100401.91
2022-08-02T07:55:16.380Z,100405.72
2022-08-02T07:57:47.668Z,100404.84
2022-08-02T08:00:18.310Z,100407.06
2022-08-02T08:02:48.173Z,100408.25
2022-08-02T08:05:16.950Z,100404.34
2022-08-02T08:07:45.499Z,100399.72
2022-08-02T08:10:13.956Z,100407.88
2022-08-02T08:12:42.481Z,100401.97
2022-08-02T08:15:12.753Z,100390.44
2022-08-02T08:17:41.592Z,100398.34
2022-08-02T08:20:15.608Z,100388.22
2022-08-02T08:22:44.461Z,100387.78
2022-08-02T08:25:12.939Z,100394.28
2022-08-02T08:27:50.257Z,100397.31
2022-08-02T08:30:22.005Z,100387.75
2022-08-02T08:32:50.921Z,100398.16
2022-08-02T08:35:19.373Z,100396.03
2022-08-02T08:37:47.857Z,100395.56
2022-08-02T08:40:19.701Z,100407.56
2022-08-02T08:42:48.499Z,100405.88
2022-08-02T08:45:18.055Z,100414.06
2022-08-02T08:47:54.234Z,100412.41
2022-08-02T08:50:28.047Z,100407.88
2022-08-02T08:53:04.456Z,100407.03
2022-08-02T08:55:35.449Z,100398.81
2022-08-02T08:58:05.777Z,100401.28
2022-08-02T09:00:36.420Z,100392.38
2022-08-02T09:03:08.592Z,100388.19
2022-08-02T09:05:38.901Z,100388.75
2022-08-02T09:08:07.857Z,100380.97
2022-08-02T09:10:41.962Z,100383.53
2022-08-02T09:13:39.256Z,100392.00
2022-08-02T09:16:13.106Z,100390.13
2022-08-02T09:18:47.618Z,100394.97
2022-08-02T09:21:17.638Z,100391.56
2022-08-02T09:23:48.916Z,100387.47
2022-08-02T09:26:19.162Z,100377.03
2022-08-02T09:28:50.386Z,100388.75
2022-08-02T09:31:22.095Z,100391.41
2022-08-02T09:33:56.595Z,100398.06
2022-08-02T09:36:26.277Z,100395.69
2022-08-02T09:38:58.606Z,100392.50
2022-08-02T09:41:29.796Z,100391.91
2022-08-02T09:44:04.763Z,100392.59
2022-08-02T09:46:38.917Z,100388.72
2022-08-02T09:49:13.223Z,100388.53
2022-08-02T09:51:50.477Z,100388.34
2022-08-02T09:54:21.360Z,100382.81
2022-08-02T09:56:51.814Z,100382.94
2022-08-02T09:59:24.643Z,100378.16
2022-08-02T10:02:02.262Z,100378.78
2022-08-02T10:04:53.434Z,100376.38
2022-08-02T10:07:23.452Z,100369.72
2022-08-02T10:09:52.317Z,100373.22
2022-08-02T10:12:22.390Z,100377.22
2022-08-02T10:14:52.876Z,100377.53
2022-08-02T10:17:22.556Z,100367.88
2022-08-02T10:20:00.850Z,100364.06
2022-08-02T10:22:34.778Z,100365.13
2022-08-02T10:25:05.865Z,100362.66
2022-08-02T10:28:02.472Z,100359.25
2022-08-02T10:30:25.870Z,100352.00
2022-08-02T10:32:56.298Z,100347.75
2022-08-02T10:35:27.204Z,100348.50
2022-08-02T10:38:07.874Z,100347.88
2022-08-02T10:40:50.857Z,100341.28
2022-08-02T10:43:44.296Z,100349.25
2022-08-02T10:46:33.546Z,100339.22
2022-08-02T10:49:36.694Z,100343.81
2022-08-02T10:52:11.365Z,100338.22
2022-08-02T10:54:42.159Z,100317.69
2022-08-02T10:57:22.799Z,100323.91
2022-08-02T10:59:53.514Z,100321.69
2022-08-02T11:02:42.834Z,100326.94
2022-08-02T11:05:15.547Z,100335.72
2022-08-02T11:07:49.407Z,100327.94
2022-08-02T11:10:37.535Z,100332.84
2022-08-02T11:13:10.885Z,100318.19
2022-08-02T11:16:01.279Z,100325.91
2022-08-02T11:19:06.703Z,100321.47
2022-08-02T11:21:37.338Z,100314.22
2022-08-02T11:24:33.327Z,100309.00
2022-08-02T11:27:03.191Z,100312.50
2022-08-02T11:29:40.500Z,100309.59
2022-08-02T11:32:10.943Z,100308.94
2022-08-02T11:34:40.768Z,100303.09
2022-08-02T11:37:09.264Z,100292.78
2022-08-02T11:39:39.290Z,100305.91
2022-08-02T11:42:08.737Z,100297.16
2022-08-02T11:44:43.212Z,100299.25
2022-08-02T11:47:12.600Z,100296.84
2022-08-02T11:49:41.277Z,100296.44
2022-08-02T11:52:11.675Z,100288.91
2022-08-02T11:54:44.197Z,100299.69
2022-08-02T11:57:20.894Z,100294.34
2022-08-02T11:59:54.302Z,100297.69
2022-08-02T12:02:25.150Z,100299.38
2022-08-02T12:04:57.310Z,100289.28
2022-08-02T12:07:34.961Z,100290.84
2022-08-02T12:10:09.700Z,100289.41
2022-08-02T12:12:50.383Z,100287.88
2022-08-02T12:15:32.773Z,100281.31
2022-08-02T12:18:19.643Z,100278.50
2022-08-02T12:20:48.464Z,100290.31
2022-08-02T12:23:16.853Z,100285.34
2022-08-02T12:25:46.749Z,100282.16
2022-08-02T12:28:18.303Z,100284.88
2022-08-02T12:30:55.604Z,100280.31
2022-08-02T12:33:25.632Z,100282.47
2022-08-02T12:35:54.647Z,100283.41
2022-08-02T12:38:23.491Z,100281.06
2022-08-02T12:40:54.231Z,100279.91
2022-08-02T12:43:25.242Z,100278.03
2022-08-02T12:45:56.664Z,100281.44
2022-08-02T12:48:38.413Z,100279.19
2022-08-02T12:51:56.763Z,100277.50
2022-08-02T12:54:18.275Z,100271.59
2022-08-02T12:56:49.041Z,100269.19
2022-08-02T12:59:18.203Z,100270.03
2022-08-02T13:01:48.478Z,100259.53
2022-08-02T13:04:16.996Z,100255.63
2022-08-02T13:06:45.818Z,100260.97
2022-08-02T13:09:17.006Z,100255.34
2022-08-02T13:11:47.508Z,100250.22
2022-08-02T13:14:16.428Z,100256.56
2022-08-02T13:16:47.006Z,100247.28
2022-08-02T13:19:16.341Z,100246.53
2022-08-02T13:22:02.722Z,100258.06
2022-08-02T13:24:39.911Z,100255.84
2022-08-02T13:27:26.240Z,100245.66
2022-08-02T13:29:56.744Z,100246.00
2022-08-02T13:32:27.931Z,100248.50
2022-08-02T13:34:57.267Z,100240.06
2022-08-02T13:37:26.314Z,100245.22
2022-08-02T13:40:19.975Z,100235.75
2022-08-02T13:42:45.018Z,100233.34
2022-08-02T13:45:14.338Z,100247.31
2022-08-02T13:47:57.490Z,100237.94
2022-08-02T13:50:34.041Z,100228.66
2022-08-02T13:53:02.524Z,100229.28
2022-08-02T13:55:31.104Z,100218.69
2022-08-02T13:58:00.931Z,100210.50
2022-08-02T14:00:35.445Z,100209.91
2022-08-02T14:03:07.117Z,100210.47
2022-08-02T14:05:48.043Z,100206.72
2022-08-02T14:08:18.422Z,100210.38
2022-08-02T14:10:48.097Z,100206.69
2022-08-02T14:13:18.793Z,100210.94
2022-08-02T14:15:47.789Z,100208.56
2022-08-02T14:18:16.537Z,100205.94
2022-08-02T14:20:45.331Z,100202.22
2022-08-02T14:23:13.855Z,100199.81
2022-08-02T14:25:42.634Z,100195.03
2022-08-02T14:28:11.044Z,100184.06
2022-08-02T14:30:40.961Z,100186.81
2022-08-02T14:33:09.445Z,100191.25
2022-08-02T14:35:37.849Z,100179.53
2022-08-02T14:38:07.205Z,100191.91
2022-08-02T14:40:36.018Z,100179.53
2022-08-02T14:43:05.353Z,100179.38
2022-08-02T14:45:36.963Z,100171.53
2022-08-02T14:48:12.233Z,100177.31
2022-08-02T14:50:40.804Z,100176.78
2022-08-02T14:53:12.761Z,100168.69
2022-08-02T14:55:43.185Z,100165.63
2022-08-02T14:58:12.048Z,100175.22
2022-08-02T15:00:41.718Z,100172.94
2022-08-02T15:03:14.825Z,100165.19
2022-08-02T15:05:43.322Z,100164.66
2022-08-02T15:08:11.821Z,100163.84
2022-08-02T15:10:46.654Z,100161.19
2022-08-02T15:13:17.835Z,100167.38
2022-08-02T15:15:46.211Z,100162.25
2022-08-02T15:18:16.124Z,100162.34
2022-08-02T15:20:57.457Z,100160.41
2022-08-02T15:23:37.575Z,100160.28
2022-08-02T15:26:07.779Z,100158.34
2022-08-02T15:28:38.522Z,100158.69
2022-08-02T15:31:06.947Z,100153.00
2022-08-02T15:33:36.760Z,100150.59
2022-08-02T15:36:06.058Z,100152.88
2022-08-02T15:38:34.826Z,100154.28
2022-08-02T15:41:04.374Z,100153.34
2022-08-02T15:43:32.926Z,100149.34
2022-08-02T15:46:01.369Z,100153.97
2022-08-02T15:48:29.906Z,100149.16
2022-08-02T15:50:59.726Z,100151.72
2022-08-02T15:53:28.171Z,100139.88
2022-08-02T15:56:05.693Z,100146.09
2022-08-02T15:58:44.301Z,100139.13
2022-08-02T16:01:13.423Z,100145.63
2022-08-02T16:03:41.898Z,100143.72
2022-08-02T16:06:12.393Z,100143.38
2022-08-02T16:08:53.570Z,100136.84
2022-08-02T16:11:23.862Z,100127.53
2022-08-02T16:13:54.255Z,100137.13
2022-08-02T16:16:24.537Z,100132.34
2022-08-02T16:18:53.234Z,100125.03
2022-08-02T16:21:24.708Z,100119.06
2022-08-02T16:23:58.646Z,100115.63
2022-08-02T16:26:32.439Z,100119.78
2022-08-02T16:29:02.355Z,100120.34
2022-08-02T16:31:30.956Z,100119.22
2022-08-02T16:33:59.977Z,100120.06
2022-08-02T16:36:31.203Z,100116.72
2022-08-02T16:38:59.751Z,100123.72
2022-08-02T16:41:50.888Z,100126.91
2022-08-02T16:44:17.336Z,100122.63
2022-08-02T16:46:46.039Z,100117.22
2022-08-02T16:50:05.021Z,100122.09
2022-08-02T16:52:05.263Z,100119.06
2022-08-02T16:54:33.717Z,100116.22
2022-08-02T16:57:04.986Z,100106.41
2022-08-02T16:59:42.707Z,100108.69
2022-08-02T17:02:18.519Z,100107.81
2022-08-02T17:04:49.263Z,100114.28
2022-08-02T17:08:06.151Z,100106.88
2022-08-02T17:10:09.745Z,100103.88
2022-08-02T17:12:39.217Z,100105.53
2022-08-02T17:16:16.569Z,100114.44
2022-08-02T17:18:01.128Z,100110.56
2022-08-02T17:20:30.276Z,100112.06
2022-08-02T17:23:00.623Z,100113.00
2022-08-02T17:25:31.945Z,100114.19
2022-08-02T17:28:01.174Z,100111.97
2022-08-02T17:30:29.724Z,100118.66
2022-08-02T17:32:59.335Z,100112.44
2022-08-02T17:35:43.733Z,100114.63
2022-08-02T17:38:26.674Z,100119.56
2022-08-02T17:40:56.629Z,100115.66
2022-08-02T17:43:25.978Z,100113.44
2022-08-02T17:46:02.248Z,100109.56
2022-08-02T17:49:04.290Z,100109.03
2022-08-02T17:51:33.096Z,100115.88
2022-08-02T17:54:22.893Z,100102.94
2022-08-02T17:56:51.983Z,100098.72
2022-08-02T17:59:31.090Z,100106.88
2022-08-02T18:02:11.250Z,100119.63
2022-08-02T18:04:40.049Z,100112.81
2022-08-02T18:07:10.377Z,100115.22
2022-08-02T18:12:30.026Z,100120.22
2022-08-02T18:14:58.436Z,100126.16
2022-08-02T18:17:27.034Z,100117.75
2022-08-02T18:22:46.300Z,100110.09
2022-08-02T18:25:37.278Z,100112.63
2022-08-02T18:28:13.648Z,100112.31
2022-08-02T18:30:42.066Z,100112.88
2022-08-02T18:34:00.467Z,100113.41
2022-08-02T18:35:58.895Z,100116.06
2022-08-02T18:38:30.160Z,100119.00
2022-08-02T18:41:02.823Z,100120.38
2022-08-02T18:43:34.466Z,100123.66
2022-08-02T18:46:15.844Z,100123.88
2022-08-02T18:48:47.897Z,100117.13
2022-08-02T18:51:18.761Z,100111.19
2022-08-02T18:53:51.231Z,100114.00
2022-08-02T18:56:24.378Z,100119.84
2022-08-02T18:58:55.323Z,100119.84
2022-08-02T19:01:33.873Z,100122.78
2022-08-02T19:04:05.147Z,100121.19
2022-08-02T19:06:33.988Z,100115.50
2022-08-02T19:09:04.945Z,100116.84
2022-08-02T19:11:41.366Z,100115.28
2022-08-02T19:14:19.127Z,100117.25
2022-08-02T19:16:56.634Z,100113.63
2022-08-02T19:19:28.954Z,100115.97
2022-08-02T19:22:18.295Z,100111.84
2022-08-02T19:24:47.824Z,100118.47
2022-08-02T19:27:26.300Z,100112.56
2022-08-02T19:30:02.876Z,100111.63
2022-08-02T19:32:41.591Z,100127.22
2022-08-02T19:35:30.542Z,100124.81
2022-08-02T19:38:09.378Z,100121.66
2022-08-02T19:40:41.672Z,100121.66
2022-08-02T19:44:21.132Z,100122.16
2022-08-02T19:46:01.645Z,100117.31
2022-08-02T19:48:30.803Z,100121.66
2022-08-02T19:51:00.807Z,100121.91
2022-08-02T19:53:47.520Z,100125.66
2022-08-02T19:59:13.245Z,100115.66
2022-08-02T20:01:48.589Z,100118.66
2022-08-02T20:04:22.183Z,100124.44
2022-08-02T20:06:52.154Z,100126.59
2022-08-02T20:09:23.395Z,100123.44
2022-08-02T20:11:54.945Z,100122.69
2022-08-02T20:14:27.718Z,100130.56
2022-08-02T20:16:57.643Z,100129.84
2022-08-02T20:19:29.608Z,100126.09
2022-08-02T20:22:00.558Z,100120.16
2022-08-02T20:24:30.043Z,100124.03
2022-08-02T20:26:59.217Z,100121.47
2022-08-02T20:29:43.721Z,100117.25
2022-08-02T20:32:21.301Z,100123.53
2022-08-02T20:34:52.451Z,100122.19
2022-08-02T20:37:55.934Z,100122.66
2022-08-02T20:40:16.398Z,100127.34
2022-08-02T20:42:47.900Z,100117.78
2022-08-02T20:45:19.153Z,100124.19
2022-08-02T20:47:51.024Z,100126.13
2022-08-02T20:50:38.643Z,100125.38
2022-08-02T20:53:08.690Z,100123.69
2022-08-02T20:55:54.256Z,100124.09
2022-08-02T20:58:26.920Z,100120.97
2022-08-02T21:00:59.823Z,100129.19
2022-08-02T21:03:39.376Z,100129.41
2022-08-02T21:06:11.362Z,100132.25
2022-08-02T21:08:46.118Z,100136.13
2022-08-02T21:11:15.074Z,100140.94
2022-08-02T21:13:47.313Z,100133.94
2022-08-02T21:16:33.315Z,100135.00
2022-08-02T21:19:02.325Z,100141.63
2022-08-02T21:21:31.110Z,100144.59
2022-08-02T21:24:01.488Z,100143.25
2022-08-02T21:26:31.299Z,100143.69
2022-08-02T21:29:04.392Z,100141.03
2022-08-02T21:31:35.696Z,100143.16
2022-08-02T21:34:21.599Z,100141.47
2022-08-02T21:36:51.309Z,100139.81
2022-08-02T21:39:20.537Z,100145.09
2022-08-02T21:41:49.633Z,100136.63
2022-08-02T21:44:20.494Z,100140.44
2022-08-02T21:46:53.779Z,100145.09
2022-08-02T21:49:27.144Z,100146.78
2022-08-02T21:52:10.280Z,100146.16
2022-08-02T21:54:39.909Z,100143.97
2022-08-02T21:57:15.157Z,100144.19
2022-08-02T21:59:46.248Z,100142.81
2022-08-02T22:02:18.142Z,100141.97
2022-08-02T22:04:48.008Z,100154.50
2022-08-02T22:07:24.077Z,100155.78
2022-08-02T22:09:52.987Z,100149.00
2022-08-02T22:12:26.327Z,100146.66
2022-08-02T22:14:56.493Z,100159.38
2022-08-02T22:17:49.947Z,100156.97
2022-08-02T22:20:19.719Z,100155.78
2022-08-02T22:22:50.721Z,100164.94
2022-08-02T22:25:26.803Z,100166.94
2022-08-02T22:28:35.572Z,100159.31
2022-08-02T22:30:57.308Z,100160.47
2022-08-02T22:33:47.101Z,100164.69
2022-08-02T22:36:29.912Z,100170.19
2022-08-02T22:38:58.443Z,100173.16
2022-08-02T22:42:00.912Z,100179.28
2022-08-02T22:44:16.841Z,100174.06
2022-08-02T22:46:50.290Z,100167.19
2022-08-02T22:49:38.670Z,100169.47
2022-08-02T22:52:10.706Z,100166.50
2022-08-02T22:54:39.557Z,100159.91
2022-08-02T22:57:11.386Z,100165.97
2022-08-02T22:58:43.845Z,100116.28
2022-08-02T22:58:57.895Z,100112.53
2022-08-02T22:59:05.753Z,100116.97
2022-08-02T22:59:41.415Z,100169.00
2022-08-02T23:02:10.750Z,100168.28
2022-08-02T23:04:40.604Z,100162.31
2022-08-02T23:07:09.081Z,100164.53
2022-08-02T23:09:37.870Z,100163.00
2022-08-02T23:12:06.944Z,100162.13
2022-08-02T23:14:36.379Z,100159.03
2022-08-02T23:17:22.053Z,100165.31
2022-08-02T23:19:51.845Z,100156.81
2022-08-02T23:22:21.813Z,100166.00
2022-08-02T23:24:58.772Z,100163.06
2022-08-02T23:27:27.147Z,100159.91
2022-08-02T23:29:55.698Z,100161.78
2022-08-02T23:32:25.755Z,100161.13
2022-08-02T23:34:56.455Z,100163.88
2022-08-02T23:37:25.448Z,100162.84
2022-08-02T23:39:53.904Z,100170.53
2022-08-02T23:42:23.310Z,100165.41
2022-08-02T23:44:51.790Z,100165.03
2022-08-02T23:47:20.392Z,100172.97
2022-08-02T23:49:48.795Z,100171.75
2022-08-02T23:52:18.918Z,100177.31
2022-08-02T23:54:47.481Z,100167.94
2022-08-02T23:57:20.158Z,100177.88
2022-08-02T23:59:51.638Z,100180.22
